sensor_id;sensor_type;location;lat;lon;timestamp;P1;durP1;ratioP1;P2;durP2;ratioP2
15285;SDS011;7744;52.172;10.668;2023-07-29T11:21:57;3.08;;;2.90;;
15285;SDS011;7744;52.172;10.668;2023-07-29T11:24:23;2.85;;;2.65;;
15285;SDS011;7744;52.172;10.668;2023-07-29T11:26:49;2.80;;;2.60;;
15285;SDS011;7744;52.172;10.668;2023-07-29T11:29:15;2.78;;;2.58;;
15285;SDS011;7744;52.172;10.668;2023-07-29T11:31:41;3.33;;;2.70;;
15285;SDS011;7744;52.172;10.668;2023-07-29T11:34:07;3.17;;;2.97;;
15285;SDS011;7744;52.172;10.668;2023-07-29T11:36:33;2.90;;;2.70;;
15285;SDS011;7744;52.172;10.668;2023-07-29T11:38:58;3.03;;;2.72;;
15285;SDS011;7744;52.172;10.668;2023-07-29T11:41:24;2.95;;;2.75;;
15285;SDS011;7744;52.172;10.668;2023-07-29T11:43:49;8.65;;;4.28;;
15285;SDS011;7744;52.172;10.668;2023-07-29T11:46:20;5.28;;;3.50;;
15285;SDS011;7744;52.172;10.668;2023-07-29T11:48:46;5.03;;;4.25;;
15285;SDS011;7744;52.172;10.668;2023-07-29T11:51:11;4.88;;;4.47;;
15285;SDS011;7744;52.172;10.668;2023-07-29T11:53:38;5.28;;;4.88;;
15285;SDS011;7744;52.172;10.668;2023-07-29T11:56:03;4.32;;;4.03;;
15285;SDS011;7744;52.172;10.668;2023-07-29T11:58:29;5.00;;;4.60;;
15285;SDS011;7744;52.172;10.668;2023-07-29T12:00:56;4.20;;;3.90;;
15285;SDS011;7744;52.172;10.668;2023-07-29T12:03:22;5.53;;;5.10;;
15285;SDS011;7744;52.172;10.668;2023-07-29T12:05:48;6.32;;;5.93;;
15285;SDS011;7744;52.172;10.668;2023-07-29T12:08:14;5.45;;;5.05;;
15285;SDS011;7744;52.172;10.668;2023-07-29T12:10:40;6.10;;;5.60;;
15285;SDS011;7744;52.172;10.668;2023-07-29T12:13:07;5.43;;;5.13;;
15285;SDS011;7744;52.172;10.668;2023-07-29T12:15:33;4.93;;;4.63;;
15285;SDS011;7744;52.172;10.668;2023-07-29T12:17:59;6.05;;;5.40;;
15285;SDS011;7744;52.172;10.668;2023-07-29T12:20:25;5.35;;;4.90;;
15285;SDS011;7744;52.172;10.668;2023-07-29T12:22:55;5.22;;;4.72;;
15285;SDS011;7744;52.172;10.668;2023-07-29T12:25:22;5.55;;;4.72;;
15285;SDS011;7744;52.172;10.668;2023-07-29T12:27:49;4.50;;;4.20;;
15285;SDS011;7744;52.172;10.668;2023-07-29T12:30:15;4.63;;;4.32;;
15285;SDS011;7744;52.172;10.668;2023-07-29T12:32:45;10.20;;;3.88;;
15285;SDS011;7744;52.172;10.668;2023-07-29T12:35:11;4.47;;;4.18;;
15285;SDS011;7744;52.172;10.668;2023-07-29T12:37:37;4.25;;;3.95;;
15285;SDS011;7744;52.172;10.668;2023-07-29T12:40:07;4.13;;;3.83;;
15285;SDS011;7744;52.172;10.668;2023-07-29T12:42:34;4.55;;;4.25;;
15285;SDS011;7744;52.172;10.668;2023-07-29T12:45:00;4.72;;;4.43;;
15285;SDS011;7744;52.172;10.668;2023-07-29T12:47:25;4.95;;;4.55;;
15285;SDS011;7744;52.172;10.668;2023-07-29T12:49:51;4.57;;;4.28;;
15285;SDS011;7744;52.172;10.668;2023-07-29T12:52:17;5.13;;;4.72;;
15285;SDS011;7744;52.172;10.668;2023-07-29T12:54:42;5.93;;;5.53;;
15285;SDS011;7744;52.172;10.668;2023-07-29T12:57:09;5.30;;;5.00;;
15285;SDS011;7744;52.172;10.668;2023-07-29T12:59:35;5.60;;;5.30;;
15285;SDS011;7744;52.172;10.668;2023-07-29T13:02:00;5.57;;;5.18;;
15285;SDS011;7744;52.172;10.668;2023-07-29T13:04:26;5.40;;;5.00;;
15285;SDS011;7744;52.172;10.668;2023-07-29T13:06:51;5.18;;;4.78;;
15285;SDS011;7744;52.172;10.668;2023-07-29T13:09:17;5.30;;;5.00;;
15285;SDS011;7744;52.172;10.668;2023-07-29T13:11:43;5.10;;;4.70;;
15285;SDS011;7744;52.172;10.668;2023-07-29T13:14:08;4.75;;;4.35;;
15285;SDS011;7744;52.172;10.668;2023-07-29T13:16:34;4.20;;;3.90;;
15285;SDS011;7744;52.172;10.668;2023-07-29T13:18:59;4.35;;;4.05;;
15285;SDS011;7744;52.172;10.668;2023-07-29T13:21:25;4.43;;;4.13;;
15285;SDS011;7744;52.172;10.668;2023-07-29T13:23:51;4.30;;;3.90;;
15285;SDS011;7744;52.172;10.668;2023-07-29T13:26:17;3.90;;;3.60;;
15285;SDS011;7744;52.172;10.668;2023-07-29T13:28:42;3.17;;;2.97;;
15285;SDS011;7744;52.172;10.668;2023-07-29T13:31:08;2.50;;;2.25;;
15285;SDS011;7744;52.172;10.668;2023-07-29T13:33:34;2.33;;;2.20;;
15285;SDS011;7744;52.172;10.668;2023-07-29T13:36:00;2.03;;;1.92;;
15285;SDS011;7744;52.172;10.668;2023-07-29T13:38:28;1.80;;;1.70;;
15285;SDS011;7744;52.172;10.668;2023-07-29T13:40:54;2.35;;;1.90;;
15285;SDS011;7744;52.172;10.668;2023-07-29T13:43:20;1.80;;;1.70;;
15285;SDS011;7744;52.172;10.668;2023-07-29T13:45:45;2.05;;;1.55;;
15285;SDS011;7744;52.172;10.668;2023-07-29T13:48:13;2.00;;;1.52;;
15285;SDS011;7744;52.172;10.668;2023-07-29T13:50:39;1.30;;;1.20;;
15285;SDS011;7744;52.172;10.668;2023-07-29T13:53:06;1.60;;;1.45;;
15285;SDS011;7744;52.172;10.668;2023-07-29T13:55:32;1.48;;;1.27;;
15285;SDS011;7744;52.172;10.668;2023-07-29T13:57:57;2.85;;;1.27;;
15285;SDS011;7744;52.172;10.668;2023-07-29T14:00:23;1.88;;;1.40;;
15285;SDS011;7744;52.172;10.668;2023-07-29T14:02:49;1.25;;;1.15;;
15285;SDS011;7744;52.172;10.668;2023-07-29T14:05:14;1.40;;;1.30;;
15285;SDS011;7744;52.172;10.668;2023-07-29T14:07:40;1.10;;;1.10;;
15285;SDS011;7744;52.172;10.668;2023-07-29T14:10:06;1.20;;;1.10;;
15285;SDS011;7744;52.172;10.668;2023-07-29T14:12:33;1.30;;;1.10;;
15285;SDS011;7744;52.172;10.668;2023-07-29T14:14:59;2.35;;;0.70;;
15285;SDS011;7744;52.172;10.668;2023-07-29T14:17:26;0.93;;;0.93;;
15285;SDS011;7744;52.172;10.668;2023-07-29T14:19:51;0.90;;;0.90;;
15285;SDS011;7744;52.172;10.668;2023-07-29T14:22:17;1.05;;;0.95;;
15285;SDS011;7744;52.172;10.668;2023-07-29T14:24:43;2.47;;;1.02;;
15285;SDS011;7744;52.172;10.668;2023-07-29T14:27:08;0.80;;;0.80;;
15285;SDS011;7744;52.172;10.668;2023-07-29T14:29:34;3.15;;;0.90;;
15285;SDS011;7744;52.172;10.668;2023-07-29T14:32:00;1.10;;;1.00;;
15285;SDS011;7744;52.172;10.668;2023-07-29T14:34:25;1.00;;;1.00;;
15285;SDS011;7744;52.172;10.668;2023-07-29T14:36:51;1.40;;;1.13;;
15285;SDS011;7744;52.172;10.668;2023-07-29T14:39:17;0.80;;;0.80;;
15285;SDS011;7744;52.172;10.668;2023-07-29T14:41:42;1.48;;;0.88;;
15285;SDS011;7744;52.172;10.668;2023-07-29T14:44:08;0.80;;;0.80;;
15285;SDS011;7744;52.172;10.668;2023-07-29T14:46:34;1.17;;;1.08;;
15285;SDS011;7744;52.172;10.668;2023-07-29T14:48:59;1.35;;;0.90;;
15285;SDS011;7744;52.172;10.668;2023-07-29T14:51:25;1.75;;;1.40;;
15285;SDS011;7744;52.172;10.668;2023-07-29T14:53:51;0.80;;;0.80;;
15285;SDS011;7744;52.172;10.668;2023-07-29T14:56:17;1.00;;;1.00;;
15285;SDS011;7744;52.172;10.668;2023-07-29T14:58:43;1.10;;;0.88;;
15285;SDS011;7744;52.172;10.668;2023-07-29T15:01:09;1.17;;;1.00;;
15285;SDS011;7744;52.172;10.668;2023-07-29T15:03:35;0.80;;;0.80;;
15285;SDS011;7744;52.172;10.668;2023-07-29T15:06:01;1.35;;;0.90;;
15285;SDS011;7744;52.172;10.668;2023-07-29T15:08:28;1.15;;;1.05;;
15285;SDS011;7744;52.172;10.668;2023-07-29T15:10:54;0.82;;;0.80;;
15285;SDS011;7744;52.172;10.668;2023-07-29T15:13:20;1.27;;;1.10;;
15285;SDS011;7744;52.172;10.668;2023-07-29T15:15:46;1.30;;;1.00;;
15285;SDS011;7744;52.172;10.668;2023-07-29T15:18:13;1.30;;;0.95;;
15285;SDS011;7744;52.172;10.668;2023-07-29T15:20:39;0.90;;;0.90;;
15285;SDS011;7744;52.172;10.668;2023-07-29T15:23:04;1.48;;;0.80;;
15285;SDS011;7744;52.172;10.668;2023-07-29T15:25:33;1.27;;;1.00;;
15285;SDS011;7744;52.172;10.668;2023-07-29T15:28:04;1.08;;;1.00;;
15285;SDS011;7744;52.172;10.668;2023-07-29T15:30:29;1.10;;;1.00;;
15285;SDS011;7744;52.172;10.668;2023-07-29T15:32:55;1.13;;;0.90;;
15285;SDS011;7744;52.172;10.668;2023-07-29T15:35:24;1.00;;;0.90;;
15285;SDS011;7744;52.172;10.668;2023-07-29T15:37:49;0.90;;;0.90;;
15285;SDS011;7744;52.172;10.668;2023-07-29T15:40:15;1.10;;;1.00;;
15285;SDS011;7744;52.172;10.668;2023-07-29T15:42:42;0.80;;;0.80;;
15285;SDS011;7744;52.172;10.668;2023-07-29T15:45:07;0.80;;;0.80;;
15285;SDS011;7744;52.172;10.668;2023-07-29T15:47:34;2.72;;;2.53;;
15285;SDS011;7744;52.172;10.668;2023-07-29T15:49:59;4.10;;;3.72;;
15285;SDS011;7744;52.172;10.668;2023-07-29T15:52:25;2.45;;;2.25;;
15285;SDS011;7744;52.172;10.668;2023-07-29T15:54:52;0.93;;;0.90;;
15285;SDS011;7744;52.172;10.668;2023-07-29T15:57:19;1.00;;;0.90;;
15285;SDS011;7744;52.172;10.668;2023-07-29T15:59:45;0.77;;;0.77;;
15285;SDS011;7744;52.172;10.668;2023-07-29T16:02:11;1.38;;;1.00;;
15285;SDS011;7744;52.172;10.668;2023-07-29T16:04:36;1.50;;;0.98;;
15285;SDS011;7744;52.172;10.668;2023-07-29T16:07:02;0.95;;;0.95;;
15285;SDS011;7744;52.172;10.668;2023-07-29T16:09:28;1.35;;;1.25;;
15285;SDS011;7744;52.172;10.668;2023-07-29T16:11:53;1.20;;;1.10;;
15285;SDS011;7744;52.172;10.668;2023-07-29T16:14:19;1.20;;;1.10;;
15285;SDS011;7744;52.172;10.668;2023-07-29T16:16:45;1.35;;;1.25;;
15285;SDS011;7744;52.172;10.668;2023-07-29T16:19:10;2.25;;;0.93;;
15285;SDS011;7744;52.172;10.668;2023-07-29T16:21:36;1.30;;;1.20;;
15285;SDS011;7744;52.172;10.668;2023-07-29T16:24:02;1.20;;;1.10;;
15285;SDS011;7744;52.172;10.668;2023-07-29T16:26:28;1.20;;;1.10;;
15285;SDS011;7744;52.172;10.668;2023-07-29T16:28:54;1.20;;;1.10;;
15285;SDS011;7744;52.172;10.668;2023-07-29T16:31:20;1.20;;;1.10;;
15285;SDS011;7744;52.172;10.668;2023-07-29T16:33:45;2.72;;;1.17;;
15285;SDS011;7744;52.172;10.668;2023-07-29T16:36:11;1.25;;;1.15;;
15285;SDS011;7744;52.172;10.668;2023-07-29T16:38:37;1.80;;;1.20;;
15285;SDS011;7744;52.172;10.668;2023-07-29T16:41:03;1.40;;;1.30;;
15285;SDS011;7744;52.172;10.668;2023-07-29T16:43:28;1.73;;;1.23;;
15285;SDS011;7744;52.172;10.668;2023-07-29T16:45:54;1.40;;;1.25;;
15285;SDS011;7744;52.172;10.668;2023-07-29T16:48:19;1.65;;;1.35;;
15285;SDS011;7744;52.172;10.668;2023-07-29T16:50:45;1.38;;;1.27;;
15285;SDS011;7744;52.172;10.668;2023-07-29T16:53:11;1.63;;;1.20;;
15285;SDS011;7744;52.172;10.668;2023-07-29T16:55:36;1.40;;;1.30;;
15285;SDS011;7744;52.172;10.668;2023-07-29T16:58:02;1.60;;;1.50;;
15285;SDS011;7744;52.172;10.668;2023-07-29T17:00:28;1.33;;;1.23;;
15285;SDS011;7744;52.172;10.668;2023-07-29T17:02:53;1.40;;;1.30;;
15285;SDS011;7744;52.172;10.668;2023-07-29T17:05:19;1.55;;;1.35;;
15285;SDS011;7744;52.172;10.668;2023-07-29T17:07:45;2.63;;;1.65;;
15285;SDS011;7744;52.172;10.668;2023-07-29T17:10:10;1.63;;;1.52;;
15285;SDS011;7744;52.172;10.668;2023-07-29T17:12:36;1.60;;;1.50;;
15285;SDS011;7744;52.172;10.668;2023-07-29T17:15:02;1.60;;;1.50;;
15285;SDS011;7744;52.172;10.668;2023-07-29T17:17:27;1.92;;;1.77;;
15285;SDS011;7744;52.172;10.668;2023-07-29T17:19:53;1.75;;;1.65;;
15285;SDS011;7744;52.172;10.668;2023-07-29T17:22:19;1.80;;;1.70;;
15285;SDS011;7744;52.172;10.668;2023-07-29T17:24:45;1.77;;;1.67;;
15285;SDS011;7744;52.172;10.668;2023-07-29T17:27:10;1.80;;;1.70;;
15285;SDS011;7744;52.172;10.668;2023-07-29T17:29:45;1.88;;;1.75;;
15285;SDS011;7744;52.172;10.668;2023-07-29T17:32:16;2.00;;;1.80;;
15285;SDS011;7744;52.172;10.668;2023-07-29T17:34:42;2.10;;;2.00;;
15285;SDS011;7744;52.172;10.668;2023-07-29T17:37:08;3.53;;;2.05;;
15285;SDS011;7744;52.172;10.668;2023-07-29T17:39:33;2.35;;;1.90;;
15285;SDS011;7744;52.172;10.668;2023-07-29T17:42:01;2.13;;;2.03;;
15285;SDS011;7744;52.172;10.668;2023-07-29T17:44:27;1.98;;;1.88;;
15285;SDS011;7744;52.172;10.668;2023-07-29T17:46:52;1.92;;;1.77;;
15285;SDS011;7744;52.172;10.668;2023-07-29T17:49:18;2.00;;;1.90;;
15285;SDS011;7744;52.172;10.668;2023-07-29T17:51:44;1.80;;;1.70;;
15285;SDS011;7744;52.172;10.668;2023-07-29T17:54:09;1.98;;;1.88;;
15285;SDS011;7744;52.172;10.668;2023-07-29T17:56:35;2.30;;;2.08;;
15285;SDS011;7744;52.172;10.668;2023-07-29T17:59:00;1.90;;;1.80;;
15285;SDS011;7744;52.172;10.668;2023-07-29T18:01:26;2.08;;;1.98;;
15285;SDS011;7744;52.172;10.668;2023-07-29T18:03:51;2.17;;;1.98;;
15285;SDS011;7744;52.172;10.668;2023-07-29T18:06:17;2.97;;;2.00;;
15285;SDS011;7744;52.172;10.668;2023-07-29T18:08:43;2.30;;;2.10;;
15285;SDS011;7744;52.172;10.668;2023-07-29T18:11:08;4.10;;;2.20;;
15285;SDS011;7744;52.172;10.668;2023-07-29T18:13:34;2.38;;;2.17;;
15285;SDS011;7744;52.172;10.668;2023-07-29T18:16:00;2.30;;;2.10;;
15285;SDS011;7744;52.172;10.668;2023-07-29T18:18:26;2.85;;;1.92;;
15285;SDS011;7744;52.172;10.668;2023-07-29T18:20:52;2.38;;;1.90;;
15285;SDS011;7744;52.172;10.668;2023-07-29T18:23:18;2.03;;;1.90;;
15285;SDS011;7744;52.172;10.668;2023-07-29T18:25:43;2.70;;;2.10;;
15285;SDS011;7744;52.172;10.668;2023-07-29T18:28:09;2.20;;;2.00;;
15285;SDS011;7744;52.172;10.668;2023-07-29T18:30:35;2.13;;;1.70;;
15285;SDS011;7744;52.172;10.668;2023-07-29T18:33:02;2.40;;;2.20;;
15285;SDS011;7744;52.172;10.668;2023-07-29T18:35:28;2.35;;;2.10;;
15285;SDS011;7744;52.172;10.668;2023-07-29T18:37:54;2.00;;;1.90;;
15285;SDS011;7744;52.172;10.668;2023-07-29T18:40:23;3.55;;;2.38;;
15285;SDS011;7744;52.172;10.668;2023-07-29T18:42:49;2.13;;;2.03;;
15285;SDS011;7744;52.172;10.668;2023-07-29T18:45:15;2.42;;;2.08;;
15285;SDS011;7744;52.172;10.668;2023-07-29T18:47:42;2.22;;;1.98;;
15285;SDS011;7744;52.172;10.668;2023-07-29T18:50:07;2.28;;;2.17;;
15285;SDS011;7744;52.172;10.668;2023-07-29T18:52:33;2.20;;;2.00;;
15285;SDS011;7744;52.172;10.668;2023-07-29T18:54:59;2.47;;;2.28;;
15285;SDS011;7744;52.172;10.668;2023-07-29T18:57:25;2.00;;;1.90;;
15285;SDS011;7744;52.172;10.668;2023-07-29T18:59:50;5.30;;;2.35;;
15285;SDS011;7744;52.172;10.668;2023-07-29T19:02:16;2.30;;;2.20;;
15285;SDS011;7744;52.172;10.668;2023-07-29T19:04:42;2.47;;;2.28;;
15285;SDS011;7744;52.172;10.668;2023-07-29T19:07:14;2.30;;;2.10;;
15285;SDS011;7744;52.172;10.668;2023-07-29T19:09:41;2.10;;;2.00;;
15285;SDS011;7744;52.172;10.668;2023-07-29T19:12:09;2.40;;;2.20;;
15285;SDS011;7744;52.172;10.668;2023-07-29T19:14:35;3.22;;;2.53;;
15285;SDS011;7744;52.172;10.668;2023-07-29T19:17:01;2.65;;;2.28;;
15285;SDS011;7744;52.172;10.668;2023-07-29T19:19:26;2.47;;;2.10;;
15285;SDS011;7744;52.172;10.668;2023-07-29T19:21:52;2.80;;;2.30;;
15285;SDS011;7744;52.172;10.668;2023-07-29T19:24:17;2.08;;;1.98;;
15285;SDS011;7744;52.172;10.668;2023-07-29T19:26:43;2.72;;;2.53;;
15285;SDS011;7744;52.172;10.668;2023-07-29T19:29:09;2.58;;;2.38;;
15285;SDS011;7744;52.172;10.668;2023-07-29T19:31:37;2.80;;;2.60;;
15285;SDS011;7744;52.172;10.668;2023-07-29T19:34:03;2.63;;;2.53;;
15285;SDS011;7744;52.172;10.668;2023-07-29T19:36:29;2.95;;;2.72;;
15285;SDS011;7744;52.172;10.668;2023-07-29T19:38:57;2.50;;;2.30;;
15285;SDS011;7744;52.172;10.668;2023-07-29T19:41:23;2.60;;;2.50;;
15285;SDS011;7744;52.172;10.668;2023-07-29T19:43:51;3.50;;;2.83;;
15285;SDS011;7744;52.172;10.668;2023-07-29T19:46:18;2.83;;;2.63;;
15285;SDS011;7744;52.172;10.668;2023-07-29T19:48:44;2.80;;;2.60;;
15285;SDS011;7744;52.172;10.668;2023-07-29T19:51:10;2.75;;;2.60;;
15285;SDS011;7744;52.172;10.668;2023-07-29T19:53:35;3.03;;;2.75;;
15285;SDS011;7744;52.172;10.668;2023-07-29T19:56:01;3.95;;;2.80;;
15285;SDS011;7744;52.172;10.668;2023-07-29T19:58:28;2.88;;;2.55;;
15285;SDS011;7744;52.172;10.668;2023-07-29T20:00:53;3.17;;;2.92;;
15285;SDS011;7744;52.172;10.668;2023-07-29T20:03:19;3.28;;;2.70;;
15285;SDS011;7744;52.172;10.668;2023-07-29T20:05:44;3.08;;;2.88;;
15285;SDS011;7744;52.172;10.668;2023-07-29T20:08:11;3.63;;;2.65;;
15285;SDS011;7744;52.172;10.668;2023-07-29T20:10:36;2.58;;;2.30;;
15285;SDS011;7744;52.172;10.668;2023-07-29T20:13:02;2.80;;;2.60;;
15285;SDS011;7744;52.172;10.668;2023-07-29T20:15:28;2.85;;;2.65;;
15285;SDS011;7744;52.172;10.668;2023-07-29T20:17:53;2.70;;;2.50;;
15285;SDS011;7744;52.172;10.668;2023-07-29T20:20:19;2.70;;;2.50;;
15285;SDS011;7744;52.172;10.668;2023-07-29T20:22:44;2.63;;;2.40;;
15285;SDS011;7744;52.172;10.668;2023-07-29T20:25:10;2.25;;;2.15;;
15285;SDS011;7744;52.172;10.668;2023-07-29T20:27:36;2.00;;;1.90;;
15285;SDS011;7744;52.172;10.668;2023-07-29T20:30:02;2.08;;;1.98;;
15285;SDS011;7744;52.172;10.668;2023-07-29T20:32:28;1.95;;;1.85;;
15285;SDS011;7744;52.172;10.668;2023-07-29T20:34:53;2.08;;;1.77;;
15285;SDS011;7744;52.172;10.668;2023-07-29T20:37:19;1.70;;;1.60;;
15285;SDS011;7744;52.172;10.668;2023-07-29T20:39:45;1.65;;;1.55;;
15285;SDS011;7744;52.172;10.668;2023-07-29T20:42:10;2.20;;;2.00;;
15285;SDS011;7744;52.172;10.668;2023-07-29T20:44:36;1.45;;;1.35;;
15285;SDS011;7744;52.172;10.668;2023-07-29T20:47:03;1.40;;;1.30;;
15285;SDS011;7744;52.172;10.668;2023-07-29T20:49:29;1.95;;;1.40;;
15285;SDS011;7744;52.172;10.668;2023-07-29T20:51:55;1.50;;;1.40;;
15285;SDS011;7744;52.172;10.668;2023-07-29T20:54:22;1.60;;;1.50;;
15285;SDS011;7744;52.172;10.668;2023-07-29T20:56:47;1.52;;;1.42;;
15285;SDS011;7744;52.172;10.668;2023-07-29T20:59:13;1.23;;;1.13;;
15285;SDS011;7744;52.172;10.668;2023-07-29T21:01:41;1.50;;;1.40;;
15285;SDS011;7744;52.172;10.668;2023-07-29T21:04:07;1.30;;;1.20;;
15285;SDS011;7744;52.172;10.668;2023-07-29T21:06:32;2.08;;;1.17;;
15285;SDS011;7744;52.172;10.668;2023-07-29T21:09:00;1.70;;;1.60;;
15285;SDS011;7744;52.172;10.668;2023-07-29T21:11:27;1.30;;;1.20;;
15285;SDS011;7744;52.172;10.668;2023-07-29T21:13:53;1.40;;;1.30;;
15285;SDS011;7744;52.172;10.668;2023-07-29T21:16:18;1.45;;;1.35;;
15285;SDS011;7744;52.172;10.668;2023-07-29T21:18:46;1.77;;;1.67;;
15285;SDS011;7744;52.172;10.668;2023-07-29T21:21:13;1.58;;;1.45;;
15285;SDS011;7744;52.172;10.668;2023-07-29T21:26:08;1.52;;;1.42;;
15285;SDS011;7744;52.172;10.668;2023-07-29T21:28:34;2.17;;;1.50;;
15285;SDS011;7744;52.172;10.668;2023-07-29T21:31:01;1.55;;;1.45;;
15285;SDS011;7744;52.172;10.668;2023-07-29T21:33:27;1.85;;;1.75;;
15285;SDS011;7744;52.172;10.668;2023-07-29T21:35:53;2.67;;;1.45;;
15285;SDS011;7744;52.172;10.668;2023-07-29T21:38:18;1.40;;;1.30;;
15285;SDS011;7744;52.172;10.668;2023-07-29T21:40:48;1.60;;;1.50;;
15285;SDS011;7744;52.172;10.668;2023-07-29T21:43:17;2.38;;;1.30;;
15285;SDS011;7744;52.172;10.668;2023-07-29T21:45:43;1.77;;;1.67;;
15285;SDS011;7744;52.172;10.668;2023-07-29T21:48:09;1.58;;;1.48;;
15285;SDS011;7744;52.172;10.668;2023-07-29T21:50:34;1.83;;;1.73;;
15285;SDS011;7744;52.172;10.668;2023-07-29T21:53:00;2.17;;;1.75;;
15285;SDS011;7744;52.172;10.668;2023-07-29T21:55:26;2.05;;;1.33;;
15285;SDS011;7744;52.172;10.668;2023-07-29T21:57:51;1.70;;;1.60;;
15285;SDS011;7744;52.172;10.668;2023-07-29T22:00:17;1.70;;;1.60;;
15285;SDS011;7744;52.172;10.668;2023-07-29T22:02:42;1.67;;;1.58;;
15285;SDS011;7744;52.172;10.668;2023-07-29T22:05:08;2.65;;;1.80;;
15285;SDS011;7744;52.172;10.668;2023-07-29T22:07:33;3.42;;;1.92;;
15285;SDS011;7744;52.172;10.668;2023-07-29T22:09:59;1.60;;;1.50;;
15285;SDS011;7744;52.172;10.668;2023-07-29T22:12:25;2.10;;;1.70;;
15285;SDS011;7744;52.172;10.668;2023-07-29T22:14:57;2.30;;;1.65;;
15285;SDS011;7744;52.172;10.668;2023-07-29T22:17:23;1.75;;;1.65;;
15285;SDS011;7744;52.172;10.668;2023-07-29T22:19:49;1.60;;;1.50;;
15285;SDS011;7744;52.172;10.668;2023-07-29T22:22:14;2.40;;;1.65;;
15285;SDS011;7744;52.172;10.668;2023-07-29T22:24:40;1.60;;;1.50;;
15285;SDS011;7744;52.172;10.668;2023-07-29T22:27:06;1.60;;;1.50;;
15285;SDS011;7744;52.172;10.668;2023-07-29T22:29:32;1.83;;;1.63;;
15285;SDS011;7744;52.172;10.668;2023-07-29T22:31:58;1.70;;;1.60;;
15285;SDS011;7744;52.172;10.668;2023-07-29T22:34:24;1.67;;;1.58;;
15285;SDS011;7744;52.172;10.668;2023-07-29T22:36:50;2.17;;;1.90;;
15285;SDS011;7744;52.172;10.668;2023-07-29T22:39:15;2.00;;;1.80;;
15285;SDS011;7744;52.172;10.668;2023-07-29T22:41:41;1.70;;;1.60;;
15285;SDS011;7744;52.172;10.668;2023-07-29T22:44:07;1.73;;;1.63;;
15285;SDS011;7744;52.172;10.668;2023-07-29T22:46:32;1.80;;;1.50;;
15285;SDS011;7744;52.172;10.668;2023-07-29T22:48:58;1.70;;;1.60;;
15285;SDS011;7744;52.172;10.668;2023-07-29T22:51:23;1.70;;;1.60;;
15285;SDS011;7744;52.172;10.668;2023-07-29T22:53:49;2.03;;;1.80;;
15285;SDS011;7744;52.172;10.668;2023-07-29T22:56:14;1.40;;;1.30;;
15285;SDS011;7744;52.172;10.668;2023-07-29T22:58:40;2.30;;;1.70;;
15285;SDS011;7744;52.172;10.668;2023-07-29T23:01:06;1.75;;;1.65;;
15285;SDS011;7744;52.172;10.668;2023-07-29T23:03:31;2.13;;;1.92;;
15285;SDS011;7744;52.172;10.668;2023-07-29T23:05:57;1.98;;;1.75;;
15285;SDS011;7744;52.172;10.668;2023-07-29T23:08:23;1.83;;;1.60;;
15285;SDS011;7744;52.172;10.668;2023-07-29T23:10:48;1.73;;;1.63;;
15285;SDS011;7744;52.172;10.668;2023-07-29T23:13:14;1.88;;;1.35;;
15285;SDS011;7744;52.172;10.668;2023-07-29T23:15:40;1.67;;;1.55;;
15285;SDS011;7744;52.172;10.668;2023-07-29T23:18:09;1.77;;;1.50;;
15285;SDS011;7744;52.172;10.668;2023-07-29T23:20:35;1.60;;;1.50;;
15285;SDS011;7744;52.172;10.668;2023-07-29T23:23:01;1.60;;;1.50;;
15285;SDS011;7744;52.172;10.668;2023-07-29T23:25:28;1.70;;;1.60;;
15285;SDS011;7744;52.172;10.668;2023-07-29T23:27:54;1.70;;;1.60;;
15285;SDS011;7744;52.172;10.668;2023-07-29T23:30:20;1.60;;;1.50;;
15285;SDS011;7744;52.172;10.668;2023-07-29T23:32:45;1.40;;;1.30;;
15285;SDS011;7744;52.172;10.668;2023-07-29T23:35:11;1.65;;;1.55;;
15285;SDS011;7744;52.172;10.668;2023-07-29T23:37:37;1.67;;;1.30;;
15285;SDS011;7744;52.172;10.668;2023-07-29T23:40:03;1.50;;;1.40;;
15285;SDS011;7744;52.172;10.668;2023-07-29T23:42:29;1.33;;;1.20;;
15285;SDS011;7744;52.172;10.668;2023-07-29T23:44:55;1.30;;;1.20;;
15285;SDS011;7744;52.172;10.668;2023-07-29T23:47:21;1.50;;;1.40;;
15285;SDS011;7744;52.172;10.668;2023-07-29T23:49:46;1.50;;;1.40;;
15285;SDS011;7744;52.172;10.668;2023-07-29T23:52:12;2.45;;;1.48;;
15285;SDS011;7744;52.172;10.668;2023-07-29T23:54:38;2.28;;;1.40;;
15285;SDS011;7744;52.172;10.668;2023-07-29T23:57:03;1.58;;;1.48;;
15285;SDS011;7744;52.172;10.668;2023-07-29T23:59:29;1.50;;;1.30;;
